sensor_id;sensor_type;location;lat;lon;timestamp;pressure;altitude;pressure_sealevel;temperature;humidity
46690;BME280;32423;45.398;10.874;2023-05-12T00:01:01;100400.00;;;13.79;86.71
46690;BME280;32423;45.398;10.874;2023-05-12T00:03:56;100401.50;;;13.76;86.42
46690;BME280;32423;45.398;10.874;2023-05-12T00:06:45;100397.28;;;13.79;86.88
46690;BME280;32423;45.398;10.874;2023-05-12T00:09:40;100406.78;;;13.97;85.98
46690;BME280;32423;45.398;10.874;2023-05-12T00:12:37;100404.53;;;13.87;85.66
46690;BME280;32423;45.398;10.874;2023-05-12T00:15:29;100405.47;;;13.79;85.99
46690;BME280;32423;45.398;10.874;2023-05-12T00:18:24;100410.13;;;13.78;86.38
46690;BME280;32423;45.398;10.874;2023-05-12T00:21:14;100401.94;;;13.78;86.87
46690;BME280;32423;45.398;10.874;2023-05-12T00:24:06;100400.00;;;13.79;86.61
46690;BME280;32423;45.398;10.874;2023-05-12T00:27:00;100394.44;;;13.75;87.02
46690;BME280;32423;45.398;10.874;2023-05-12T00:29:55;100394.53;;;13.79;86.90
46690;BME280;32423;45.398;10.874;2023-05-12T00:32:47;100387.13;;;13.79;87.84
46690;BME280;32423;45.398;10.874;2023-05-12T00:35:41;100393.41;;;13.80;87.82
46690;BME280;32423;45.398;10.874;2023-05-12T00:38:36;100391.56;;;13.71;87.72
46690;BME280;32423;45.398;10.874;2023-05-12T00:41:30;100392.75;;;13.70;88.55
46690;BME280;32423;45.398;10.874;2023-05-12T00:44:25;100387.38;;;13.86;87.96
46690;BME280;32423;45.398;10.874;2023-05-12T00:47:20;100386.56;;;13.86;87.47
46690;BME280;32423;45.398;10.874;2023-05-12T00:50:14;100384.75;;;13.78;87.74
46690;BME280;32423;45.398;10.874;2023-05-12T00:53:09;100388.41;;;13.69;88.21
46690;BME280;32423;45.398;10.874;2023-05-12T00:56:03;100385.63;;;13.94;88.03
46690;BME280;32423;45.398;10.874;2023-05-12T00:58:55;100382.06;;;14.05;86.27
46690;BME280;32423;45.398;10.874;2023-05-12T01:01:50;100379.91;;;13.99;84.86
46690;BME280;32423;45.398;10.874;2023-05-12T01:04:45;100382.19;;;13.97;86.71
46690;BME280;32423;45.398;10.874;2023-05-12T01:07:40;100388.28;;;14.18;85.11
46690;BME280;32423;45.398;10.874;2023-05-12T01:10:36;100379.91;;;14.11;84.48
46690;BME280;32423;45.398;10.874;2023-05-12T01:13:37;100387.41;;;14.02;84.56
46690;BME280;32423;45.398;10.874;2023-05-12T01:16:32;100390.88;;;13.87;85.54
46690;BME280;32423;45.398;10.874;2023-05-12T01:19:53;100380.97;;;13.94;85.08
46690;BME280;32423;45.398;10.874;2023-05-12T01:22:49;100389.63;;;13.96;84.79
46690;BME280;32423;45.398;10.874;2023-05-12T01:25:47;100387.09;;;14.03;83.80
46690;BME280;32423;45.398;10.874;2023-05-12T01:28:42;100385.38;;;14.11;83.76
46690;BME280;32423;45.398;10.874;2023-05-12T01:31:37;100380.63;;;13.96;84.41
46690;BME280;32423;45.398;10.874;2023-05-12T01:34:29;100380.72;;;13.99;84.98
46690;BME280;32423;45.398;10.874;2023-05-12T01:37:21;100378.69;;;13.96;84.67
46690;BME280;32423;45.398;10.874;2023-05-12T01:40:14;100385.72;;;13.97;84.64
46690;BME280;32423;45.398;10.874;2023-05-12T01:43:05;100390.63;;;14.04;84.82
46690;BME280;32423;45.398;10.874;2023-05-12T01:45:59;100392.22;;;13.93;84.80
46690;BME280;32423;45.398;10.874;2023-05-12T01:48:54;100395.63;;;14.02;84.58
46690;BME280;32423;45.398;10.874;2023-05-12T01:51:48;100394.00;;;14.13;83.77
46690;BME280;32423;45.398;10.874;2023-05-12T01:54:47;100397.44;;;14.10;84.33
46690;BME280;32423;45.398;10.874;2023-05-12T01:57:42;100397.59;;;14.01;84.27
46690;BME280;32423;45.398;10.874;2023-05-12T02:00:36;100386.41;;;14.06;83.48
46690;BME280;32423;45.398;10.874;2023-05-12T02:03:32;100396.06;;;14.16;82.47
46690;BME280;32423;45.398;10.874;2023-05-12T02:06:30;100393.56;;;14.11;83.39
46690;BME280;32423;45.398;10.874;2023-05-12T02:09:25;100397.53;;;14.13;82.96
46690;BME280;32423;45.398;10.874;2023-05-12T02:12:21;100391.25;;;14.13;83.77
46690;BME280;32423;45.398;10.874;2023-05-12T02:15:16;100388.84;;;14.24;83.28
46690;BME280;32423;45.398;10.874;2023-05-12T02:18:11;100394.56;;;14.19;83.27
46690;BME280;32423;45.398;10.874;2023-05-12T02:21:03;100393.16;;;14.25;82.61
46690;BME280;32423;45.398;10.874;2023-05-12T02:23:58;100393.75;;;14.18;82.79
46690;BME280;32423;45.398;10.874;2023-05-12T02:26:53;100392.22;;;13.93;83.17
46690;BME280;32423;45.398;10.874;2023-05-12T02:29:45;100392.75;;;13.58;85.22
46690;BME280;32423;45.398;10.874;2023-05-12T02:32:39;100388.09;;;13.47;85.99
46690;BME280;32423;45.398;10.874;2023-05-12T02:35:31;100390.81;;;13.47;86.39
46690;BME280;32423;45.398;10.874;2023-05-12T02:38:26;100385.69;;;13.69;85.84
46690;BME280;32423;45.398;10.874;2023-05-12T02:41:20;100392.41;;;13.60;85.95
46690;BME280;32423;45.398;10.874;2023-05-12T02:44:12;100389.22;;;13.58;85.64
46690;BME280;32423;45.398;10.874;2023-05-12T02:47:07;100396.41;;;13.50;84.96
46690;BME280;32423;45.398;10.874;2023-05-12T02:50:02;100388.53;;;13.37;85.22
46690;BME280;32423;45.398;10.874;2023-05-12T02:52:54;100389.56;;;13.20;87.05
46690;BME280;32423;45.398;10.874;2023-05-12T02:55:48;100393.44;;;13.19;86.95
46690;BME280;32423;45.398;10.874;2023-05-12T02:58:40;100390.59;;;13.40;86.39
46690;BME280;32423;45.398;10.874;2023-05-12T03:01:35;100393.66;;;13.62;83.65
46690;BME280;32423;45.398;10.874;2023-05-12T03:04:29;100384.78;;;13.65;83.33
46690;BME280;32423;45.398;10.874;2023-05-12T03:07:25;100382.06;;;13.65;84.50
46690;BME280;32423;45.398;10.874;2023-05-12T03:10:22;100382.13;;;13.81;82.29
46690;BME280;32423;45.398;10.874;2023-05-12T03:13:17;100384.97;;;13.85;81.96
46690;BME280;32423;45.398;10.874;2023-05-12T03:16:09;100386.34;;;13.79;81.77
46690;BME280;32423;45.398;10.874;2023-05-12T03:19:01;100382.84;;;13.66;82.70
46690;BME280;32423;45.398;10.874;2023-05-12T03:21:56;100389.34;;;13.49;82.52
46690;BME280;32423;45.398;10.874;2023-05-12T03:24:50;100387.41;;;13.38;83.41
46690;BME280;32423;45.398;10.874;2023-05-12T03:27:41;100389.09;;;13.42;83.84
46690;BME280;32423;45.398;10.874;2023-05-12T03:30:33;100389.69;;;13.60;84.34
46690;BME280;32423;45.398;10.874;2023-05-12T03:33:25;100380.25;;;13.45;83.94
46690;BME280;32423;45.398;10.874;2023-05-12T03:36:17;100372.16;;;13.37;84.57
46690;BME280;32423;45.398;10.874;2023-05-12T03:39:12;100371.81;;;13.26;85.39
46690;BME280;32423;45.398;10.874;2023-05-12T03:42:04;100370.91;;;13.22;85.32
46690;BME280;32423;45.398;10.874;2023-05-12T03:44:58;100371.81;;;13.26;85.14
46690;BME280;32423;45.398;10.874;2023-05-12T03:47:53;100376.03;;;13.48;84.32
46690;BME280;32423;45.398;10.874;2023-05-12T03:50:47;100363.41;;;13.43;83.47
46690;BME280;32423;45.398;10.874;2023-05-12T03:53:42;100371.69;;;13.59;82.71
46690;BME280;32423;45.398;10.874;2023-05-12T03:56:35;100367.34;;;13.70;81.97
46690;BME280;32423;45.398;10.874;2023-05-12T03:59:31;100366.19;;;13.83;81.86
46690;BME280;32423;45.398;10.874;2023-05-12T04:02:25;100368.34;;;13.90;81.47
46690;BME280;32423;45.398;10.874;2023-05-12T04:05:20;100366.94;;;13.96;80.98
46690;BME280;32423;45.398;10.874;2023-05-12T04:08:14;100368.75;;;14.04;80.39
46690;BME280;32423;45.398;10.874;2023-05-12T04:11:09;100374.69;;;13.30;83.29
46690;BME280;32423;45.398;10.874;2023-05-12T04:14:04;100379.31;;;13.05;84.70
46690;BME280;32423;45.398;10.874;2023-05-12T04:16:59;100387.47;;;12.93;85.20
46690;BME280;32423;45.398;10.874;2023-05-12T04:19:49;100385.63;;;12.84;86.65
46690;BME280;32423;45.398;10.874;2023-05-12T04:22:43;100387.72;;;13.00;86.24
46690;BME280;32423;45.398;10.874;2023-05-12T04:25:39;100395.69;;;13.05;85.66
46690;BME280;32423;45.398;10.874;2023-05-12T04:28:34;100393.03;;;12.84;86.40
46690;BME280;32423;45.398;10.874;2023-05-12T04:31:28;100392.78;;;12.77;86.94
46690;BME280;32423;45.398;10.874;2023-05-12T04:34:24;100398.22;;;12.77;86.48
46690;BME280;32423;45.398;10.874;2023-05-12T04:37:18;100402.28;;;12.71;86.25
46690;BME280;32423;45.398;10.874;2023-05-12T04:40:14;100405.72;;;12.80;85.85
46690;BME280;32423;45.398;10.874;2023-05-12T04:43:06;100403.84;;;12.93;85.61
46690;BME280;32423;45.398;10.874;2023-05-12T04:46:00;100405.28;;;12.78;85.52
46690;BME280;32423;45.398;10.874;2023-05-12T04:48:52;100400.84;;;12.85;85.52
46690;BME280;32423;45.398;10.874;2023-05-12T04:51:45;100409.75;;;13.07;85.21
46690;BME280;32423;45.398;10.874;2023-05-12T04:54:40;100401.38;;;13.12;83.97
46690;BME280;32423;45.398;10.874;2023-05-12T04:57:34;100408.91;;;13.15;83.38
46690;BME280;32423;45.398;10.874;2023-05-12T05:00:29;100406.97;;;13.27;83.36
46690;BME280;32423;45.398;10.874;2023-05-12T05:03:21;100407.25;;;13.02;83.27
46690;BME280;32423;45.398;10.874;2023-05-12T05:06:15;100414.53;;;12.98;83.67
46690;BME280;32423;45.398;10.874;2023-05-12T05:09:08;100412.94;;;12.84;84.96
46690;BME280;32423;45.398;10.874;2023-05-12T05:12:03;100423.38;;;12.82;84.20
46690;BME280;32423;45.398;10.874;2023-05-12T05:14:57;100425.84;;;12.75;84.20
46690;BME280;32423;45.398;10.874;2023-05-12T05:17:52;100428.63;;;12.88;84.51
46690;BME280;32423;45.398;10.874;2023-05-12T05:20:47;100423.75;;;12.93;83.57
46690;BME280;32423;45.398;10.874;2023-05-12T05:23:42;100432.03;;;12.97;84.05
46690;BME280;32423;45.398;10.874;2023-05-12T05:26:34;100432.59;;;12.90;84.37
46690;BME280;32423;45.398;10.874;2023-05-12T05:29:29;100430.88;;;12.85;85.20
46690;BME280;32423;45.398;10.874;2023-05-12T05:32:21;100432.72;;;12.94;84.58
46690;BME280;32423;45.398;10.874;2023-05-12T05:35:16;100431.75;;;13.10;84.26
46690;BME280;32423;45.398;10.874;2023-05-12T05:38:08;100436.44;;;13.22;83.62
46690;BME280;32423;45.398;10.874;2023-05-12T05:41:03;100426.53;;;13.17;83.60
46690;BME280;32423;45.398;10.874;2023-05-12T05:43:58;100442.81;;;13.26;83.61
46690;BME280;32423;45.398;10.874;2023-05-12T05:46:52;100442.53;;;13.07;83.61
46690;BME280;32423;45.398;10.874;2023-05-12T05:49:47;100443.44;;;12.99;83.96
46690;BME280;32423;45.398;10.874;2023-05-12T05:52:42;100436.94;;;13.03;84.60
46690;BME280;32423;45.398;10.874;2023-05-12T05:55:37;100448.03;;;13.31;84.55
46690;BME280;32423;45.398;10.874;2023-05-12T05:58:31;100435.75;;;13.37;83.59
46690;BME280;32423;45.398;10.874;2023-05-12T06:01:26;100442.38;;;13.48;83.65
46690;BME280;32423;45.398;10.874;2023-05-12T06:04:19;100446.03;;;13.64;83.37
46690;BME280;32423;45.398;10.874;2023-05-12T06:07:11;100443.19;;;13.61;82.75
46690;BME280;32423;45.398;10.874;2023-05-12T06:10:06;100444.88;;;13.53;82.78
46690;BME280;32423;45.398;10.874;2023-05-12T06:13:01;100444.66;;;13.70;83.34
46690;BME280;32423;45.398;10.874;2023-05-12T06:15:56;100443.06;;;13.69;82.50
46690;BME280;32423;45.398;10.874;2023-05-12T06:18:50;100436.69;;;13.65;83.21
46690;BME280;32423;45.398;10.874;2023-05-12T06:21:45;100449.88;;;13.63;83.28
46690;BME280;32423;45.398;10.874;2023-05-12T06:24:39;100449.19;;;13.66;83.86
46690;BME280;32423;45.398;10.874;2023-05-12T06:27:34;100450.81;;;13.55;83.79
46690;BME280;32423;45.398;10.874;2023-05-12T06:30:29;100453.53;;;13.55;83.28
46690;BME280;32423;45.398;10.874;2023-05-12T06:33:23;100457.06;;;13.68;84.36
46690;BME280;32423;45.398;10.874;2023-05-12T06:36:18;100457.06;;;13.68;82.65
46690;BME280;32423;45.398;10.874;2023-05-12T06:39:10;100463.00;;;13.70;82.06
46690;BME280;32423;45.398;10.874;2023-05-12T06:42:02;100462.28;;;13.73;81.69
46690;BME280;32423;45.398;10.874;2023-05-12T06:45:03;100469.22;;;13.83;81.10
46690;BME280;32423;45.398;10.874;2023-05-12T06:47:57;100467.41;;;13.87;80.92
46690;BME280;32423;45.398;10.874;2023-05-12T06:50:52;100469.91;;;13.92;80.82
46690;BME280;32423;45.398;10.874;2023-05-12T06:53:51;100475.03;;;13.93;80.99
46690;BME280;32423;45.398;10.874;2023-05-12T06:56:43;100471.50;;;13.93;81.49
46690;BME280;32423;45.398;10.874;2023-05-12T06:59:33;100476.84;;;14.13;81.02
46690;BME280;32423;45.398;10.874;2023-05-12T07:02:28;100475.84;;;14.06;80.91
46690;BME280;32423;45.398;10.874;2023-05-12T07:05:22;100474.59;;;13.91;81.91
46690;BME280;32423;45.398;10.874;2023-05-12T07:08:14;100482.00;;;13.91;81.62
46690;BME280;32423;45.398;10.874;2023-05-12T07:11:04;100476.50;;;14.03;81.21
46690;BME280;32423;45.398;10.874;2023-05-12T07:13:56;100484.03;;;14.06;81.02
46690;BME280;32423;45.398;10.874;2023-05-12T07:16:51;100484.03;;;14.06;80.55
46690;BME280;32423;45.398;10.874;2023-05-12T07:19:43;100485.25;;;14.21;80.29
46690;BME280;32423;45.398;10.874;2023-05-12T07:22:37;100492.44;;;14.25;79.91
46690;BME280;32423;45.398;10.874;2023-05-12T07:25:29;100482.97;;;14.23;79.86
46690;BME280;32423;45.398;10.874;2023-05-12T07:28:20;100492.53;;;14.29;79.47
46690;BME280;32423;45.398;10.874;2023-05-12T07:31:14;100482.84;;;14.31;78.61
46690;BME280;32423;45.398;10.874;2023-05-12T07:34:09;100482.56;;;14.61;78.32
46690;BME280;32423;45.398;10.874;2023-05-12T07:37:03;100488.53;;;14.50;78.43
46690;BME280;32423;45.398;10.874;2023-05-12T07:39:58;100490.34;;;14.46;78.39
46690;BME280;32423;45.398;10.874;2023-05-12T07:42:53;100486.00;;;14.58;77.88
46690;BME280;32423;45.398;10.874;2023-05-12T07:45:47;100492.72;;;14.48;77.21
46690;BME280;32423;45.398;10.874;2023-05-12T07:48:42;100494.94;;;14.42;76.83
46690;BME280;32423;45.398;10.874;2023-05-12T07:51:36;100490.47;;;14.50;77.04
46690;BME280;32423;45.398;10.874;2023-05-12T07:54:31;100489.09;;;14.44;77.82
46690;BME280;32423;45.398;10.874;2023-05-12T07:57:23;100491.66;;;14.37;78.45
46690;BME280;32423;45.398;10.874;2023-05-12T08:00:17;100494.09;;;14.54;78.67
46690;BME280;32423;45.398;10.874;2023-05-12T08:03:12;100492.47;;;14.53;76.85
46690;BME280;32423;45.398;10.874;2023-05-12T08:06:04;100495.44;;;14.60;76.74
46690;BME280;32423;45.398;10.874;2023-05-12T08:08:59;100491.47;;;14.58;76.83
46690;BME280;32423;45.398;10.874;2023-05-12T08:11:51;100489.16;;;14.60;77.33
46690;BME280;32423;45.398;10.874;2023-05-12T08:14:45;100489.38;;;14.67;77.41
46690;BME280;32423;45.398;10.874;2023-05-12T08:17:40;100492.31;;;14.74;77.64
46690;BME280;32423;45.398;10.874;2023-05-12T08:20:35;100494.09;;;14.82;78.00
46690;BME280;32423;45.398;10.874;2023-05-12T08:23:29;100500.41;;;14.70;77.03
46690;BME280;32423;45.398;10.874;2023-05-12T08:26:24;100498.94;;;14.73;77.12
46690;BME280;32423;45.398;10.874;2023-05-12T08:29:11;100500.25;;;14.79;76.72
46690;BME280;32423;45.398;10.874;2023-05-12T08:32:06;100505.06;;;14.82;76.75
46690;BME280;32423;45.398;10.874;2023-05-12T08:35:01;100505.94;;;14.86;76.63
46690;BME280;32423;45.398;10.874;2023-05-12T08:37:56;100510.66;;;15.01;76.97
46690;BME280;32423;45.398;10.874;2023-05-12T08:40:55;100505.31;;;15.20;75.34
46690;BME280;32423;45.398;10.874;2023-05-12T08:43:52;100511.13;;;15.19;75.71
46690;BME280;32423;45.398;10.874;2023-05-12T08:46:44;100518.31;;;15.39;77.02
46690;BME280;32423;45.398;10.874;2023-05-12T08:49:40;100513.34;;;15.29;76.71
46690;BME280;32423;45.398;10.874;2023-05-12T08:52:35;100510.63;;;15.29;77.11
46690;BME280;32423;45.398;10.874;2023-05-12T08:55:28;100512.47;;;15.25;77.33
46690;BME280;32423;45.398;10.874;2023-05-12T08:58:22;100513.09;;;15.34;76.54
46690;BME280;32423;45.398;10.874;2023-05-12T09:01:17;100518.69;;;15.37;77.37
46690;BME280;32423;45.398;10.874;2023-05-12T09:04:09;100516.63;;;15.34;76.55
46690;BME280;32423;45.398;10.874;2023-05-12T09:07:04;100524.72;;;15.43;75.62
46690;BME280;32423;45.398;10.874;2023-05-12T09:10:02;100518.44;;;15.43;74.88
46690;BME280;32423;45.398;10.874;2023-05-12T09:13:04;100526.03;;;15.33;73.94
46690;BME280;32423;45.398;10.874;2023-05-12T09:16:03;100527.22;;;15.20;72.41
46690;BME280;32423;45.398;10.874;2023-05-12T09:19:02;100534.59;;;15.32;74.95
46690;BME280;32423;45.398;10.874;2023-05-12T09:21:54;100526.19;;;15.40;72.90
46690;BME280;32423;45.398;10.874;2023-05-12T09:24:49;100523.91;;;15.43;73.58
46690;BME280;32423;45.398;10.874;2023-05-12T09:27:43;100522.34;;;15.57;72.49
46690;BME280;32423;45.398;10.874;2023-05-12T09:30:39;100529.31;;;15.55;73.43
46690;BME280;32423;45.398;10.874;2023-05-12T09:33:33;100529.72;;;15.69;73.61
46690;BME280;32423;45.398;10.874;2023-05-12T09:36:27;100521.63;;;15.76;72.79
46690;BME280;32423;45.398;10.874;2023-05-12T09:39:19;100521.09;;;15.70;71.99
46690;BME280;32423;45.398;10.874;2023-05-12T09:42:14;100528.28;;;15.59;71.34
46690;BME280;32423;45.398;10.874;2023-05-12T09:45:10;100523.84;;;15.70;71.88
46690;BME280;32423;45.398;10.874;2023-05-12T09:48:11;100519.00;;;15.64;71.43
46690;BME280;32423;45.398;10.874;2023-05-12T09:51:07;100517.94;;;15.68;71.23
46690;BME280;32423;45.398;10.874;2023-05-12T09:54:01;100517.03;;;15.80;70.81
46690;BME280;32423;45.398;10.874;2023-05-12T09:57:01;100504.50;;;15.79;71.97
46690;BME280;32423;45.398;10.874;2023-05-12T09:59:56;100510.13;;;15.86;72.03
46690;BME280;32423;45.398;10.874;2023-05-12T10:02:50;100517.22;;;15.87;69.39
46690;BME280;32423;45.398;10.874;2023-05-12T10:05:47;100509.00;;;15.87;69.51
46690;BME280;32423;45.398;10.874;2023-05-12T10:12:03;100506.16;;;15.83;68.75
46690;BME280;32423;45.398;10.874;2023-05-12T10:14:58;100513.94;;;15.97;68.94
46690;BME280;32423;45.398;10.874;2023-05-12T10:17:53;100509.22;;;16.13;69.08
46690;BME280;32423;45.398;10.874;2023-05-12T10:20:52;100508.16;;;16.02;67.76
46690;BME280;32423;45.398;10.874;2023-05-12T10:23:51;100516.50;;;15.90;69.29
46690;BME280;32423;45.398;10.874;2023-05-12T10:26:47;100516.59;;;15.94;70.18
46690;BME280;32423;45.398;10.874;2023-05-12T10:29:42;100517.41;;;15.94;69.95
46690;BME280;32423;45.398;10.874;2023-05-12T10:32:35;100519.25;;;15.90;69.18
46690;BME280;32423;45.398;10.874;2023-05-12T10:35:36;100517.22;;;15.87;68.69
46690;BME280;32423;45.398;10.874;2023-05-12T10:38:36;100520.66;;;16.00;69.01
46690;BME280;32423;45.398;10.874;2023-05-12T10:41:38;100525.88;;;16.05;67.91
46690;BME280;32423;45.398;10.874;2023-05-12T10:44:32;100531.84;;;16.10;68.55
46690;BME280;32423;45.398;10.874;2023-05-12T10:47:35;100536.72;;;16.17;66.02
46690;BME280;32423;45.398;10.874;2023-05-12T10:50:31;100527.16;;;16.26;65.92
46690;BME280;32423;45.398;10.874;2023-05-12T10:53:32;100531.78;;;16.42;66.01
46690;BME280;32423;45.398;10.874;2023-05-12T10:56:35;100527.41;;;16.56;65.80
46690;BME280;32423;45.398;10.874;2023-05-12T10:59:34;100532.09;;;16.56;66.08
46690;BME280;32423;45.398;10.874;2023-05-12T11:02:29;100536.91;;;16.59;64.69
46690;BME280;32423;45.398;10.874;2023-05-12T11:05:34;100534.59;;;16.61;65.94
46690;BME280;32423;45.398;10.874;2023-05-12T11:08:28;100537.78;;;16.63;65.53
46690;BME280;32423;45.398;10.874;2023-05-12T11:11:23;100525.91;;;17.81;60.50
46690;BME280;32423;45.398;10.874;2023-05-12T11:14:18;100537.16;;;18.78;58.41
46690;BME280;32423;45.398;10.874;2023-05-12T11:17:13;100530.69;;;18.37;58.22
46690;BME280;32423;45.398;10.874;2023-05-12T11:20:06;100541.25;;;18.35;58.43
46690;BME280;32423;45.398;10.874;2023-05-12T11:23:00;100531.34;;;20.66;53.13
46690;BME280;32423;45.398;10.874;2023-05-12T11:25:55;100537.50;;;21.28;50.64
46690;BME280;32423;45.398;10.874;2023-05-12T11:28:45;100532.78;;;20.39;52.86
46690;BME280;32423;45.398;10.874;2023-05-12T11:31:39;100535.56;;;21.75;49.49
46690;BME280;32423;45.398;10.874;2023-05-12T11:34:31;100541.53;;;24.68;41.89
46690;BME280;32423;45.398;10.874;2023-05-12T11:37:21;100535.66;;;26.67;37.17
46690;BME280;32423;45.398;10.874;2023-05-12T11:40:22;100542.78;;;27.27;35.97
46690;BME280;32423;45.398;10.874;2023-05-12T11:43:13;100541.09;;;28.14;33.31
46690;BME280;32423;45.398;10.874;2023-05-12T11:46:05;100541.06;;;28.88;32.44
46690;BME280;32423;45.398;10.874;2023-05-12T11:49:02;100536.22;;;30.49;29.84
46690;BME280;32423;45.398;10.874;2023-05-12T11:52:04;100531.50;;;26.75;35.54
46690;BME280;32423;45.398;10.874;2023-05-12T11:55:02;100532.81;;;29.73;31.40
46690;BME280;32423;45.398;10.874;2023-05-12T11:58:00;100518.06;;;28.80;32.37
46690;BME280;32423;45.398;10.874;2023-05-12T12:00:55;100521.97;;;27.64;34.01
46690;BME280;32423;45.398;10.874;2023-05-12T12:03:51;100524.59;;;28.03;33.94
46690;BME280;32423;45.398;10.874;2023-05-12T12:06:47;100519.69;;;27.07;34.09
46690;BME280;32423;45.398;10.874;2023-05-12T12:09:42;100525.94;;;27.31;34.32
46690;BME280;32423;45.398;10.874;2023-05-12T12:12:34;100524.63;;;28.32;32.58
46690;BME280;32423;45.398;10.874;2023-05-12T12:15:29;100526.91;;;26.25;35.13
46690;BME280;32423;45.398;10.874;2023-05-12T12:18:21;100524.84;;;25.83;37.68
46690;BME280;32423;45.398;10.874;2023-05-12T12:21:15;100529.22;;;25.30;36.81
46690;BME280;32423;45.398;10.874;2023-05-12T12:24:08;100528.59;;;25.19;38.04
46690;BME280;32423;45.398;10.874;2023-05-12T12:27:02;100529.16;;;26.54;36.03
46690;BME280;32423;45.398;10.874;2023-05-12T12:29:57;100527.00;;;26.81;34.92
46690;BME280;32423;45.398;10.874;2023-05-12T12:32:49;100530.63;;;26.78;33.00
46690;BME280;32423;45.398;10.874;2023-05-12T12:35:43;100531.19;;;28.26;31.64
46690;BME280;32423;45.398;10.874;2023-05-12T12:38:39;100523.00;;;27.38;32.25
46690;BME280;32423;45.398;10.874;2023-05-12T12:41:34;100525.75;;;27.21;32.90
46690;BME280;32423;45.398;10.874;2023-05-12T12:44:26;100533.25;;;28.67;30.90
46690;BME280;32423;45.398;10.874;2023-05-12T12:47:20;100532.53;;;26.22;35.21
46690;BME280;32423;45.398;10.874;2023-05-12T12:50:15;100535.88;;;26.56;34.75
46690;BME280;32423;45.398;10.874;2023-05-12T12:53:07;100527.63;;;26.29;35.20
46690;BME280;32423;45.398;10.874;2023-05-12T12:56:01;100533.66;;;24.26;40.51
46690;BME280;32423;45.398;10.874;2023-05-12T12:58:56;100527.84;;;24.51;37.84
46690;BME280;32423;45.398;10.874;2023-05-12T13:01:48;100527.28;;;23.26;41.05
46690;BME280;32423;45.398;10.874;2023-05-12T13:04:42;100523.88;;;23.00;43.01
46690;BME280;32423;45.398;10.874;2023-05-12T13:07:37;100523.25;;;22.54;43.01
46690;BME280;32423;45.398;10.874;2023-05-12T13:10:29;100520.25;;;23.69;41.49
46690;BME280;32423;45.398;10.874;2023-05-12T13:13:24;100521.34;;;21.87;45.13
46690;BME280;32423;45.398;10.874;2023-05-12T13:16:18;100520.03;;;20.24;48.91
46690;BME280;32423;45.398;10.874;2023-05-12T13:19:10;100521.44;;;20.00;49.73
46690;BME280;32423;45.398;10.874;2023-05-12T13:22:02;100523.84;;;19.20;51.61
46690;BME280;32423;45.398;10.874;2023-05-12T13:24:54;100522.66;;;19.18;51.00
46690;BME280;32423;45.398;10.874;2023-05-12T13:27:49;100522.81;;;19.76;51.23
46690;BME280;32423;45.398;10.874;2023-05-12T13:30:44;100515.16;;;20.06;49.73
46690;BME280;32423;45.398;10.874;2023-05-12T13:33:33;100516.94;;;19.81;49.85
46690;BME280;32423;45.398;10.874;2023-05-12T13:36:28;100517.88;;;19.48;51.61
46690;BME280;32423;45.398;10.874;2023-05-12T13:39:23;100529.72;;;20.00;51.83
46690;BME280;32423;45.398;10.874;2023-05-12T13:42:15;100526.69;;;20.16;51.82
46690;BME280;32423;45.398;10.874;2023-05-12T13:45:10;100524.16;;;20.51;50.41
46690;BME280;32423;45.398;10.874;2023-05-12T13:48:05;100524.47;;;21.22;47.34
46690;BME280;32423;45.398;10.874;2023-05-12T13:50:59;100516.59;;;21.56;47.41
46690;BME280;32423;45.398;10.874;2023-05-12T13:53:54;100517.09;;;19.99;51.32
46690;BME280;32423;45.398;10.874;2023-05-12T13:56:44;100517.28;;;19.32;52.93
46690;BME280;32423;45.398;10.874;2023-05-12T13:59:39;100518.25;;;18.76;53.99
46690;BME280;32423;45.398;10.874;2023-05-12T14:02:34;100512.72;;;18.76;54.44
46690;BME280;32423;45.398;10.874;2023-05-12T14:05:28;100522.66;;;18.55;56.22
46690;BME280;32423;45.398;10.874;2023-05-12T14:08:23;100526.50;;;18.20;55.71
46690;BME280;32423;45.398;10.874;2023-05-12T14:11:17;100521.66;;;18.14;56.53
46690;BME280;32423;45.398;10.874;2023-05-12T14:14:12;100517.47;;;18.50;56.06
46690;BME280;32423;45.398;10.874;2023-05-12T14:17:06;100514.78;;;18.83;55.66
46690;BME280;32423;45.398;10.874;2023-05-12T14:20:01;100515.13;;;19.15;55.54
46690;BME280;32423;45.398;10.874;2023-05-12T14:22:57;100526.72;;;18.64;54.67
46690;BME280;32423;45.398;10.874;2023-05-12T14:25:51;100523.56;;;18.62;53.63
46690;BME280;32423;45.398;10.874;2023-05-12T14:28:46;100514.88;;;18.34;56.12
46690;BME280;32423;45.398;10.874;2023-05-12T14:31:41;100511.06;;;19.02;56.42
46690;BME280;32423;45.398;10.874;2023-05-12T14:34:33;100506.56;;;19.23;53.55
46690;BME280;32423;45.398;10.874;2023-05-12T14:37:27;100511.34;;;19.30;53.73
46690;BME280;32423;45.398;10.874;2023-05-12T14:40:20;100510.25;;;19.79;52.33
46690;BME280;32423;45.398;10.874;2023-05-12T14:43:14;100509.91;;;19.43;53.35
46690;BME280;32423;45.398;10.874;2023-05-12T14:46:09;100508.53;;;18.56;55.22
46690;BME280;32423;45.398;10.874;2023-05-12T14:49:03;100505.56;;;18.42;56.47
46690;BME280;32423;45.398;10.874;2023-05-12T14:52:01;100508.50;;;18.26;56.93
46690;BME280;32423;45.398;10.874;2023-05-12T14:54:53;100515.81;;;18.71;56.30
46690;BME280;32423;45.398;10.874;2023-05-12T14:57:45;100501.44;;;18.29;57.77
46690;BME280;32423;45.398;10.874;2023-05-12T15:00:40;100508.66;;;18.11;58.39
46690;BME280;32423;45.398;10.874;2023-05-12T15:03:32;100513.81;;;18.12;58.19